KRKS/RKS METAR and TAF weather

Enter ICAO airport designator
Station Type Date Time Source
KRKS METAR 2019/12/08 23:54 UTC NOAA

KRKS 082354Z AUTO 26022KT 10SM CLR M01/M03 A2982 RMK AO2 PK WND 26031/2343 SLP146 60000 T10111033 11006 21039 53008


Station Type Date Time Source
KRKS Decoded METAR 2019/12/08 23:54 UTC NOAA

ROCK SPRINGS-SWEETWATER CO, WY, United States (KRKS) 41-36N 109-03W
Dec 08, 2019 - 06:54 PM EST / 2019.12.08 2354 UTC
Wind: from the W (260 degrees) at 25 MPH (22 KT):0
Visibility: 10 mile(s):0
Sky conditions: clear
Temperature: 30.0 F (-1.1 C)
Windchill: 15 F (-9 C):1
Dew Point: 26.1 F (-3.3 C)
Relative Humidity: 84%
Pressure (altimeter): 29.82 in. Hg (1009 hPa)
Pressure tendency: 0.02 inches (0.8 hPa) higher than three hours ago
ob: KRKS 082354Z AUTO 26022KT 10SM CLR M01/M03 A2982 RMK AO2 PK WND 26031/2343 SLP146 60000 T10111033 11006 21039 53008
cycle: 0

Station Type Date Time Source
KRKS TAF 2019/12/08 18:42 UTC NOAA

KRKS 081739Z 0818/0918 25015G25KT 4SM BR VCSH BKN010
FM090000 27017KT P6SM SCT015
FM091500 26012KT P6SM SCT050

Example: see airport list